createdAt,value
2022-11-01T00:00:40.110Z,12.80
2022-11-01T00:01:40.093Z,12.80
2022-11-01T00:02:40.076Z,12.82
2022-11-01T00:03:40.012Z,12.83
2022-11-01T00:04:40.010Z,12.83
2022-11-01T00:05:39.977Z,12.83
2022-11-01T00:06:39.995Z,12.83
2022-11-01T00:07:39.960Z,12.82
2022-11-01T00:08:39.998Z,12.83
2022-11-01T00:09:39.936Z,12.83
2022-11-01T00:10:39.928Z,12.82
2022-11-01T00:11:39.936Z,12.83
2022-11-01T00:12:39.962Z,12.83
2022-11-01T00:13:39.889Z,12.85
2022-11-01T00:14:39.888Z,12.85
2022-11-01T00:15:39.870Z,12.86
2022-11-01T00:16:39.869Z,12.90
2022-11-01T00:17:39.849Z,12.90
2022-11-01T00:18:39.882Z,12.94
2022-11-01T00:19:39.830Z,12.94
2022-11-01T00:20:39.829Z,12.95
2022-11-01T00:21:39.809Z,12.97
2022-11-01T00:22:39.821Z,13.00
2022-11-01T00:23:39.808Z,13.01
2022-11-01T00:24:39.800Z,13.04
2022-11-01T00:25:39.749Z,13.09
2022-11-01T00:26:39.826Z,13.12
2022-11-01T00:27:39.741Z,13.16
2022-11-01T00:28:39.728Z,13.19
2022-11-01T00:29:39.730Z,13.20
2022-11-01T00:30:39.724Z,13.25
2022-11-01T00:31:39.688Z,13.27
2022-11-01T00:32:39.680Z,13.30
2022-11-01T00:33:39.678Z,13.35
2022-11-01T00:34:39.660Z,13.38
2022-11-01T00:35:39.661Z,13.44
2022-11-01T00:36:39.632Z,13.47
2022-11-01T00:37:39.620Z,13.52
2022-11-01T00:38:39.661Z,13.54
2022-11-01T00:39:39.612Z,13.59
2022-11-01T00:40:39.601Z,13.63
2022-11-01T00:41:39.580Z,13.68
2022-11-01T00:42:39.577Z,13.71
2022-11-01T00:43:39.540Z,13.77
2022-11-01T00:44:39.540Z,13.79
2022-11-01T00:45:39.541Z,13.86
2022-11-01T00:46:39.541Z,13.90
2022-11-01T00:47:39.513Z,13.96
2022-11-01T00:48:39.502Z,14.00
2022-11-01T00:49:39.480Z,14.08
2022-11-01T00:50:39.485Z,14.15
2022-11-01T00:51:39.464Z,14.23
2022-11-01T00:52:39.464Z,14.29
2022-11-01T00:53:39.454Z,14.33
2022-11-01T00:54:39.445Z,14.35
2022-11-01T00:55:39.421Z,14.41
2022-11-01T00:56:39.432Z,14.44
2022-11-01T00:57:39.392Z,14.45
2022-11-01T00:58:39.405Z,14.45
2022-11-01T00:59:41.017Z,14.48
2022-11-01T01:00:39.365Z,14.50
2022-11-01T01:01:39.448Z,14.48
2022-11-01T01:02:39.358Z,14.50
2022-11-01T01:03:39.344Z,14.48
2022-11-01T01:04:39.345Z,14.51
2022-11-01T01:05:39.306Z,14.53
2022-11-01T01:06:39.315Z,14.54
2022-11-01T01:07:39.305Z,14.55
2022-11-01T01:08:39.296Z,14.55
2022-11-01T01:09:39.273Z,14.58
2022-11-01T01:10:39.254Z,14.59
2022-11-01T01:11:39.234Z,14.58
2022-11-01T01:12:39.245Z,14.58
2022-11-01T01:13:39.225Z,14.59
2022-11-01T01:14:39.226Z,14.59
2022-11-01T01:15:39.194Z,14.59
2022-11-01T01:16:39.216Z,14.60
2022-11-01T01:17:39.165Z,14.58
2022-11-01T01:18:39.175Z,14.59
2022-11-01T01:19:39.162Z,14.60
2022-11-01T01:20:39.133Z,14.62
2022-11-01T01:21:39.157Z,14.62
2022-11-01T01:22:39.106Z,14.63
2022-11-01T01:23:39.126Z,14.65
2022-11-01T01:24:39.097Z,14.66
2022-11-01T01:25:39.085Z,14.65
2022-11-01T01:26:39.078Z,14.65
2022-11-01T01:27:39.067Z,14.65
2022-11-01T01:28:43.502Z,14.63
2022-11-01T01:29:40.029Z,14.63
2022-11-01T01:30:39.054Z,14.66
2022-11-01T01:31:39.026Z,14.69
2022-11-01T01:32:38.999Z,14.73
2022-11-01T01:33:39.000Z,14.79
2022-11-01T01:34:38.980Z,14.82
2022-11-01T01:35:38.985Z,14.85
2022-11-01T01:36:38.966Z,14.89
2022-11-01T01:37:38.958Z,14.92
2022-11-01T01:38:38.951Z,14.96
2022-11-01T01:39:38.979Z,14.97
2022-11-01T01:40:38.918Z,15.00
2022-11-01T01:41:38.899Z,15.04
2022-11-01T01:42:38.900Z,15.04
2022-11-01T01:43:38.900Z,15.09
2022-11-01T01:44:38.889Z,15.14
2022-11-01T01:45:38.881Z,15.15
2022-11-01T01:46:38.850Z,15.19
2022-11-01T01:47:38.850Z,15.22
2022-11-01T01:48:38.829Z,15.24
2022-11-01T01:49:41.660Z,15.24
2022-11-01T01:50:38.817Z,15.27
2022-11-01T01:51:38.801Z,15.25
2022-11-01T01:52:38.790Z,15.25
2022-11-01T01:53:38.779Z,15.27
2022-11-01T01:54:38.782Z,15.27
2022-11-01T01:55:38.798Z,15.28
2022-11-01T01:56:38.741Z,15.29
2022-11-01T01:57:38.750Z,15.33
2022-11-01T01:58:38.718Z,15.33
2022-11-01T01:59:38.710Z,15.35
2022-11-01T02:00:38.683Z,15.35
2022-11-01T02:01:38.997Z,15.35
2022-11-01T02:02:38.683Z,15.35
2022-11-01T02:03:38.662Z,15.35
2022-11-01T02:04:38.642Z,15.36
2022-11-01T02:05:38.662Z,15.39
2022-11-01T02:06:38.629Z,15.40
2022-11-01T02:07:38.630Z,15.42
2022-11-01T02:08:38.622Z,15.49
2022-11-01T02:09:38.609Z,15.67
2022-11-01T02:10:38.577Z,15.82
2022-11-01T02:11:38.573Z,15.90
2022-11-01T02:12:38.563Z,15.94
2022-11-01T02:13:38.542Z,15.95
2022-11-01T02:14:38.570Z,16.00
2022-11-01T02:15:38.522Z,15.98
2022-11-01T02:16:38.515Z,15.98
2022-11-01T02:17:38.522Z,15.98
2022-11-01T02:18:38.499Z,16.01
2022-11-01T02:19:38.483Z,16.00
2022-11-01T02:20:38.474Z,16.00
2022-11-01T02:21:38.463Z,16.00
2022-11-01T02:22:38.473Z,15.98
2022-11-01T02:23:38.443Z,15.95
2022-11-01T02:24:38.406Z,15.94
2022-11-01T02:25:38.424Z,15.92
2022-11-01T02:26:38.382Z,15.88
2022-11-01T02:27:38.395Z,15.88
2022-11-01T02:28:38.378Z,15.84
2022-11-01T02:29:38.362Z,15.82
2022-11-01T02:30:38.356Z,15.82
2022-11-01T02:31:38.342Z,15.79
2022-11-01T02:32:38.348Z,15.77
2022-11-01T02:33:38.327Z,15.76
2022-11-01T02:34:38.314Z,15.76
2022-11-01T02:35:38.296Z,15.77
2022-11-01T02:36:38.276Z,15.77
2022-11-01T02:37:38.294Z,15.77
2022-11-01T02:38:38.255Z,15.77
2022-11-01T02:39:38.255Z,15.77
2022-11-01T02:40:38.243Z,15.79
2022-11-01T02:41:38.234Z,15.77
2022-11-01T02:42:38.218Z,15.77
2022-11-01T02:43:38.215Z,15.77
2022-11-01T02:44:38.231Z,15.75
2022-11-01T02:45:38.187Z,15.75
2022-11-01T02:46:38.159Z,15.76
2022-11-01T02:47:38.168Z,15.77
2022-11-01T02:48:38.167Z,15.77
2022-11-01T02:49:38.134Z,15.77
2022-11-01T02:50:38.119Z,15.77
2022-11-01T02:51:38.116Z,15.77
2022-11-01T02:52:38.115Z,15.79
2022-11-01T02:53:38.096Z,15.82
2022-11-01T02:54:38.079Z,15.83
2022-11-01T02:55:38.094Z,15.84
2022-11-01T02:56:38.048Z,15.86
2022-11-01T02:57:38.306Z,15.88
2022-11-01T02:58:38.027Z,15.90
2022-11-01T02:59:38.040Z,15.90
2022-11-01T03:00:38.024Z,15.90
2022-11-01T03:01:38.103Z,15.91
2022-11-01T03:02:37.979Z,15.90
2022-11-01T03:03:37.979Z,15.91
2022-11-01T03:04:37.959Z,15.90
2022-11-01T03:05:37.960Z,15.90
2022-11-01T03:06:37.928Z,15.88
2022-11-01T03:07:37.961Z,15.86
2022-11-01T03:08:37.915Z,15.86
2022-11-01T03:09:37.919Z,15.88
2022-11-01T03:10:37.927Z,15.90
2022-11-01T03:11:37.907Z,15.92
2022-11-01T03:12:37.873Z,15.92
2022-11-01T03:13:37.860Z,16.04
2022-11-01T03:14:37.848Z,16.09
2022-11-01T03:15:37.852Z,16.10
2022-11-01T03:16:37.819Z,16.13
2022-11-01T03:17:37.812Z,16.13
2022-11-01T03:18:37.811Z,16.13
2022-11-01T03:19:37.811Z,16.16
2022-11-01T03:20:37.785Z,16.17
2022-11-01T03:21:37.791Z,16.17
2022-11-01T03:22:37.741Z,16.20
2022-11-01T03:23:37.766Z,16.21
2022-11-01T03:24:37.731Z,16.21
2022-11-01T03:25:37.720Z,16.24
2022-11-01T03:26:37.720Z,16.24
2022-11-01T03:27:37.700Z,16.21
2022-11-01T03:28:37.687Z,16.21
2022-11-01T03:29:37.680Z,16.21
2022-11-01T03:30:37.652Z,16.17
2022-11-01T03:31:37.652Z,16.17
2022-11-01T03:32:37.651Z,16.15
2022-11-01T03:33:37.645Z,16.16
2022-11-01T03:34:37.621Z,16.16
2022-11-01T03:35:37.611Z,16.15
2022-11-01T03:36:37.612Z,16.16
2022-11-01T03:37:37.652Z,16.15
2022-11-01T03:38:37.580Z,16.16
2022-11-01T03:39:37.560Z,16.15
2022-11-01T03:40:37.546Z,16.13
2022-11-01T03:41:37.574Z,16.13
2022-11-01T03:42:37.546Z,16.12
2022-11-01T03:43:37.533Z,16.09
2022-11-01T03:44:37.512Z,16.09
2022-11-01T03:45:37.504Z,16.08
2022-11-01T03:46:37.473Z,16.05
2022-11-01T03:47:37.483Z,16.04
2022-11-01T03:48:37.446Z,16.02
2022-11-01T03:49:37.458Z,16.00
2022-11-01T03:50:37.433Z,15.98
2022-11-01T03:51:37.427Z,15.97
2022-11-01T03:52:37.416Z,15.92
2022-11-01T03:53:37.457Z,15.92
2022-11-01T03:54:37.391Z,15.91
2022-11-01T03:55:37.384Z,15.91
2022-11-01T03:56:37.356Z,15.90
2022-11-01T03:57:37.485Z,15.91
2022-11-01T03:58:37.345Z,15.92
2022-11-01T03:59:37.337Z,15.94
2022-11-01T04:00:37.308Z,15.97
2022-11-01T04:01:37.470Z,15.98
2022-11-01T04:02:37.284Z,15.98
2022-11-01T04:03:37.304Z,15.98
2022-11-01T04:04:37.285Z,16.00
2022-11-01T04:05:37.257Z,15.98
2022-11-01T04:06:37.244Z,16.00
2022-11-01T04:07:37.259Z,15.98
2022-11-01T04:08:37.220Z,16.00
2022-11-01T04:09:37.237Z,16.00
2022-11-01T04:10:37.188Z,15.98
2022-11-01T04:11:37.196Z,15.98
2022-11-01T04:12:37.204Z,16.01
2022-11-01T04:13:37.176Z,15.98
2022-11-01T04:14:37.177Z,15.97
2022-11-01T04:15:37.157Z,15.97
2022-11-01T04:16:37.130Z,15.97
2022-11-01T04:17:37.137Z,15.95
2022-11-01T04:18:37.193Z,15.94
2022-11-01T04:19:37.141Z,15.94
2022-11-01T04:20:37.084Z,15.92
2022-11-01T04:21:37.088Z,15.95
2022-11-01T04:22:37.069Z,15.98
2022-11-01T04:23:37.070Z,16.00
2022-11-01T04:24:37.038Z,16.00
2022-11-01T04:25:37.050Z,16.04
2022-11-01T04:26:37.039Z,16.04
2022-11-01T04:27:37.001Z,16.08
2022-11-01T04:28:37.009Z,16.15
2022-11-01T04:29:36.982Z,16.21
2022-11-01T04:30:36.990Z,16.32
2022-11-01T04:31:36.998Z,16.35
2022-11-01T04:32:36.961Z,16.36
2022-11-01T04:33:36.929Z,16.38
2022-11-01T04:34:36.930Z,16.41
2022-11-01T04:35:36.931Z,16.43
2022-11-01T04:36:36.929Z,16.43
2022-11-01T04:37:36.889Z,16.47
2022-11-01T04:38:36.889Z,16.49
2022-11-01T04:39:36.881Z,16.49
2022-11-01T04:40:36.861Z,16.49
2022-11-01T04:41:36.842Z,16.50
2022-11-01T04:42:36.920Z,16.53
2022-11-01T04:43:36.830Z,16.53
2022-11-01T04:44:36.827Z,16.53
2022-11-01T04:45:36.806Z,16.54
2022-11-01T04:46:36.787Z,16.56
2022-11-01T04:47:36.802Z,16.61
2022-11-01T04:48:36.784Z,16.60
2022-11-01T04:49:36.761Z,16.60
2022-11-01T04:50:36.755Z,16.54
2022-11-01T04:51:36.742Z,16.57
2022-11-01T04:52:36.721Z,16.57
2022-11-01T04:53:36.727Z,16.58
2022-11-01T04:54:36.715Z,16.60
2022-11-01T04:55:36.701Z,16.64
2022-11-01T04:56:36.681Z,16.64
2022-11-01T04:57:36.662Z,16.65
2022-11-01T04:58:41.386Z,16.64
2022-11-01T04:59:37.660Z,16.64
2022-11-01T05:00:36.715Z,16.61
2022-11-01T05:01:36.755Z,16.64
2022-11-01T05:02:36.615Z,16.64
2022-11-01T05:03:36.593Z,16.68
2022-11-01T05:04:36.605Z,16.71
2022-11-01T05:05:36.576Z,16.76
2022-11-01T05:06:36.566Z,16.76
2022-11-01T05:07:36.556Z,16.78
2022-11-01T05:08:36.546Z,16.79
2022-11-01T05:09:36.558Z,16.83
2022-11-01T05:10:36.526Z,16.79
2022-11-01T05:11:36.498Z,16.78
2022-11-01T05:12:36.513Z,16.74
2022-11-01T05:13:36.478Z,16.71
2022-11-01T05:14:36.494Z,16.66
2022-11-01T05:15:40.227Z,16.65
2022-11-01T05:16:37.466Z,16.58
2022-11-01T05:17:36.447Z,16.57
2022-11-01T05:18:36.435Z,16.53
2022-11-01T05:19:36.418Z,16.51
2022-11-01T05:20:36.440Z,16.47
2022-11-01T05:21:36.386Z,16.43
2022-11-01T05:22:36.386Z,16.41
2022-11-01T05:23:36.367Z,16.39
2022-11-01T05:24:36.403Z,16.39
2022-11-01T05:25:38.190Z,16.41
2022-11-01T05:26:36.639Z,16.47
2022-11-01T05:27:36.318Z,16.49
2022-11-01T05:28:36.319Z,16.51
2022-11-01T05:29:36.360Z,16.50
2022-11-01T05:30:36.310Z,16.50
2022-11-01T05:31:36.298Z,16.50
2022-11-01T05:32:36.266Z,16.49
2022-11-01T05:33:36.271Z,16.53
2022-11-01T05:34:36.238Z,16.54
2022-11-01T05:35:36.238Z,16.57
2022-11-01T05:36:36.240Z,16.60
2022-11-01T05:37:36.211Z,16.58
2022-11-01T05:38:36.198Z,16.61
2022-11-01T05:39:36.191Z,16.61
2022-11-01T05:40:36.170Z,16.65
2022-11-01T05:41:36.179Z,16.64
2022-11-01T05:42:36.155Z,16.61
2022-11-01T05:43:36.150Z,16.69
2022-11-01T05:44:36.139Z,16.71
2022-11-01T05:45:36.132Z,16.71
2022-11-01T05:46:36.151Z,16.71
2022-11-01T05:47:36.100Z,16.69
2022-11-01T05:48:36.082Z,16.72
2022-11-01T05:49:36.075Z,16.74
2022-11-01T05:50:36.055Z,16.78
2022-11-01T05:51:36.070Z,16.81
2022-11-01T05:52:36.059Z,16.83
2022-11-01T05:53:36.050Z,16.84
2022-11-01T05:54:36.010Z,16.79
2022-11-01T05:55:36.030Z,16.78
2022-11-01T05:56:35.990Z,16.78
2022-11-01T05:57:36.030Z,16.83
2022-11-01T05:58:35.991Z,16.86
2022-11-01T05:59:35.983Z,16.87
2022-11-01T06:00:35.971Z,16.89
2022-11-01T06:01:36.009Z,16.89
2022-11-01T06:02:35.979Z,16.89
2022-11-01T06:03:35.952Z,16.90
2022-11-01T06:04:35.895Z,16.91
2022-11-01T06:05:35.904Z,16.91
2022-11-01T06:06:35.895Z,16.89
2022-11-01T06:07:35.928Z,16.89
2022-11-01T06:08:35.882Z,16.93
2022-11-01T06:09:35.856Z,16.97
2022-11-01T06:10:35.848Z,16.96
2022-11-01T06:11:41.386Z,16.90
2022-11-01T06:12:36.835Z,16.89
2022-11-01T06:13:35.823Z,16.91
2022-11-01T06:14:35.798Z,16.93
2022-11-01T06:15:38.843Z,16.90
2022-11-01T06:16:35.764Z,16.87
2022-11-01T06:17:35.766Z,16.83
2022-11-01T06:18:35.745Z,16.84
2022-11-01T06:19:35.747Z,16.79
2022-11-01T06:20:35.735Z,16.76
2022-11-01T06:21:35.716Z,16.75
2022-11-01T06:22:35.694Z,16.74
2022-11-01T06:23:35.708Z,16.71
2022-11-01T06:24:35.687Z,16.71
2022-11-01T06:25:35.690Z,16.68
2022-11-01T06:26:35.668Z,16.71
2022-11-01T06:27:35.667Z,16.68
2022-11-01T06:28:35.629Z,16.69
2022-11-01T06:29:35.640Z,16.66
2022-11-01T06:30:35.607Z,16.65
2022-11-01T06:31:35.607Z,16.68
2022-11-01T06:32:35.576Z,16.66
2022-11-01T06:33:35.588Z,16.66
2022-11-01T06:34:36.900Z,16.68
2022-11-01T06:35:35.584Z,16.66
2022-11-01T06:36:35.548Z,16.65
2022-11-01T06:37:35.536Z,16.66
2022-11-01T06:38:35.530Z,16.64
2022-11-01T06:39:35.515Z,16.64
2022-11-01T06:40:35.495Z,16.65
2022-11-01T06:41:35.488Z,16.68
2022-11-01T06:42:35.477Z,16.66
2022-11-01T06:43:35.488Z,16.65
2022-11-01T06:44:35.447Z,16.66
2022-11-01T06:45:35.471Z,16.66
2022-11-01T06:46:35.441Z,16.68
2022-11-01T06:47:35.473Z,16.71
2022-11-01T06:48:35.416Z,16.69
2022-11-01T06:49:35.440Z,16.71
2022-11-01T06:50:35.391Z,16.71
2022-11-01T06:51:35.380Z,16.71
2022-11-01T06:52:35.348Z,16.69
2022-11-01T06:53:35.360Z,16.66
2022-11-01T06:54:35.335Z,16.66
2022-11-01T06:55:35.340Z,16.69
2022-11-01T06:56:35.309Z,16.69
2022-11-01T06:57:35.320Z,16.68
2022-11-01T06:58:35.282Z,16.68
2022-11-01T06:59:35.280Z,16.68
2022-11-01T07:00:35.280Z,16.69
2022-11-01T07:01:35.416Z,16.74
2022-11-01T07:02:35.351Z,16.75
2022-11-01T07:03:35.252Z,16.75
2022-11-01T07:04:35.221Z,16.76
2022-11-01T07:05:37.170Z,16.81
2022-11-01T07:06:35.200Z,16.86
2022-11-01T07:07:35.205Z,16.86
2022-11-01T07:08:35.172Z,16.86
2022-11-01T07:09:35.172Z,16.84
2022-11-01T07:10:35.153Z,16.83
2022-11-01T07:11:35.174Z,16.81
2022-11-01T07:12:35.125Z,16.81
2022-11-01T07:13:35.128Z,16.83
2022-11-01T07:14:35.114Z,16.83
2022-11-01T07:15:35.105Z,16.83
2022-11-01T07:16:35.073Z,16.83
2022-11-01T07:17:35.114Z,16.84
2022-11-01T07:18:35.053Z,16.83
2022-11-01T07:19:35.064Z,16.84
2022-11-01T07:20:35.079Z,16.87
2022-11-01T07:21:35.032Z,16.87
2022-11-01T07:22:35.021Z,16.87
2022-11-01T07:23:35.025Z,16.87
2022-11-01T07:24:35.007Z,16.86
2022-11-01T07:25:35.007Z,16.86
2022-11-01T07:26:34.974Z,16.87
2022-11-01T07:27:34.964Z,16.86
2022-11-01T07:28:34.956Z,16.87
2022-11-01T07:29:34.945Z,16.87
2022-11-01T07:30:34.933Z,16.87
2022-11-01T07:31:34.929Z,16.86
2022-11-01T07:32:39.005Z,16.86
2022-11-01T07:33:35.916Z,16.83
2022-11-01T07:34:34.877Z,16.81
2022-11-01T07:35:34.897Z,16.79
2022-11-01T07:36:34.859Z,16.78
2022-11-01T07:37:34.857Z,16.78
2022-11-01T07:38:34.867Z,16.76
2022-11-01T07:39:34.824Z,16.76
2022-11-01T07:40:34.826Z,16.76
2022-11-01T07:41:34.816Z,16.74
2022-11-01T07:42:34.785Z,16.72
2022-11-01T07:43:34.784Z,16.72
2022-11-01T07:44:34.770Z,16.68
2022-11-01T07:45:34.771Z,16.66
2022-11-01T07:46:34.745Z,16.68
2022-11-01T07:47:34.745Z,16.68
2022-11-01T07:48:34.718Z,16.66
2022-11-01T07:49:34.717Z,16.65
2022-11-01T07:50:34.700Z,16.64
2022-11-01T07:51:34.706Z,16.61
2022-11-01T07:52:34.678Z,16.60
2022-11-01T07:53:34.686Z,16.57
2022-11-01T07:54:34.662Z,16.56
2022-11-01T07:55:34.650Z,16.53
2022-11-01T07:56:34.671Z,16.49
2022-11-01T07:57:34.632Z,16.47
2022-11-01T07:58:34.606Z,16.46
2022-11-01T07:59:34.611Z,16.41
2022-11-01T08:01:34.653Z,16.33
2022-11-01T08:02:34.611Z,16.32
2022-11-01T08:03:34.554Z,16.31
2022-11-01T08:04:34.538Z,16.26
2022-11-01T08:05:34.531Z,16.23
2022-11-01T08:06:34.530Z,16.21
2022-11-01T08:07:34.511Z,16.17
2022-11-01T08:08:34.504Z,16.16
2022-11-01T08:09:34.490Z,16.15
2022-11-01T08:10:34.462Z,16.12
2022-11-01T08:11:34.463Z,16.09
2022-11-01T08:12:34.453Z,16.02
2022-11-01T08:13:34.451Z,15.97
2022-11-01T08:14:34.415Z,15.97
2022-11-01T08:15:34.430Z,15.94
2022-11-01T08:16:34.411Z,15.88
2022-11-01T08:17:34.392Z,15.84
2022-11-01T08:18:34.391Z,15.80
2022-11-01T08:19:34.370Z,15.76
2022-11-01T08:20:34.359Z,15.75
2022-11-01T08:21:34.343Z,15.72
2022-11-01T08:22:34.430Z,15.68
2022-11-01T08:23:34.343Z,15.67
2022-11-01T08:24:34.310Z,15.64
2022-11-01T08:25:34.316Z,15.62
2022-11-01T08:26:34.283Z,15.64
2022-11-01T08:27:35.357Z,15.61
2022-11-01T08:28:34.263Z,15.61
2022-11-01T08:29:34.264Z,15.58
2022-11-01T08:30:34.243Z,15.58
2022-11-01T08:31:34.255Z,15.57
2022-11-01T08:32:34.223Z,15.55
2022-11-01T08:33:34.235Z,15.54
2022-11-01T08:34:34.203Z,15.55
2022-11-01T08:35:34.199Z,15.57
2022-11-01T08:36:34.177Z,15.58
2022-11-01T08:37:34.164Z,15.57
2022-11-01T08:38:34.156Z,15.55
2022-11-01T08:39:34.157Z,15.57
2022-11-01T08:40:34.163Z,15.55
2022-11-01T08:41:37.177Z,15.57
2022-11-01T08:42:34.102Z,15.55
2022-11-01T08:43:38.019Z,15.54
2022-11-01T08:44:35.079Z,15.57
2022-11-01T08:45:34.075Z,15.55
2022-11-01T08:46:34.071Z,15.57
2022-11-01T08:47:34.056Z,15.58
2022-11-01T08:48:34.035Z,15.64
2022-11-01T08:49:34.060Z,15.62
2022-11-01T08:50:34.015Z,15.64
2022-11-01T08:51:34.018Z,15.72
2022-11-01T08:52:33.995Z,15.73
2022-11-01T08:53:33.982Z,15.73
2022-11-01T08:54:33.999Z,15.73
2022-11-01T08:55:37.692Z,15.73
2022-11-01T08:56:33.958Z,15.75
2022-11-01T08:57:33.950Z,15.76
2022-11-01T08:58:33.927Z,15.79
2022-11-01T08:59:33.938Z,15.82
2022-11-01T09:00:33.912Z,15.88
2022-11-01T09:01:34.000Z,15.95
2022-11-01T09:02:33.972Z,16.04
2022-11-01T09:03:33.881Z,16.02
2022-11-01T09:04:33.848Z,16.04
2022-11-01T09:05:33.867Z,16.04
2022-11-01T09:06:36.309Z,16.02
2022-11-01T09:07:33.838Z,16.12
2022-11-01T09:08:33.819Z,16.21
2022-11-01T09:09:33.798Z,16.31
2022-11-01T09:10:33.798Z,16.39
2022-11-01T09:11:33.787Z,16.50
2022-11-01T09:12:33.842Z,16.51
2022-11-01T09:13:33.759Z,16.61
2022-11-01T09:14:33.751Z,16.72
2022-11-01T09:15:33.756Z,16.79
2022-11-01T09:16:33.735Z,16.64
2022-11-01T09:17:33.721Z,16.64
2022-11-01T09:18:33.723Z,16.76
2022-11-01T09:19:33.691Z,16.84
2022-11-01T09:20:33.691Z,16.75
2022-11-01T09:21:33.679Z,16.66
2022-11-01T09:22:33.647Z,16.60
2022-11-01T09:23:33.660Z,16.58
2022-11-01T09:24:33.631Z,16.64
2022-11-01T09:25:33.623Z,16.66
2022-11-01T09:26:33.606Z,16.60
2022-11-01T09:27:33.599Z,16.49
2022-11-01T09:28:34.048Z,16.65
2022-11-01T09:30:33.559Z,16.76
2022-11-01T09:31:33.563Z,16.84
2022-11-01T09:32:33.543Z,16.75
2022-11-01T09:33:33.531Z,16.64
2022-11-01T09:34:33.527Z,16.58
2022-11-01T09:35:33.505Z,16.54
2022-11-01T09:36:33.496Z,16.46
2022-11-01T09:37:33.491Z,16.38
2022-11-01T09:38:33.492Z,16.33
2022-11-01T09:39:33.468Z,16.38
2022-11-01T09:40:33.535Z,16.36
2022-11-01T09:41:33.444Z,16.36
2022-11-01T09:42:33.424Z,16.38
2022-11-01T09:43:33.427Z,16.39
2022-11-01T09:44:33.432Z,16.35
2022-11-01T09:45:33.412Z,16.35
2022-11-01T09:46:33.402Z,16.39
2022-11-01T09:47:33.363Z,16.43
2022-11-01T09:48:33.363Z,16.41
2022-11-01T09:49:33.364Z,16.43
2022-11-01T09:50:33.344Z,16.43
2022-11-01T09:51:33.331Z,16.36
2022-11-01T09:52:33.323Z,16.35
2022-11-01T09:53:33.298Z,16.35
2022-11-01T09:54:33.315Z,16.32
2022-11-01T09:55:33.264Z,16.36
2022-11-01T09:56:33.277Z,16.39
2022-11-01T09:57:33.266Z,16.35
2022-11-01T09:58:33.243Z,16.33
2022-11-01T09:59:33.235Z,16.33
2022-11-01T10:00:33.248Z,16.35
2022-11-01T10:01:33.340Z,16.31
2022-11-01T10:02:33.196Z,16.35
2022-11-01T10:03:33.200Z,16.39
2022-11-01T10:04:33.200Z,16.41
2022-11-01T10:05:33.176Z,16.43
2022-11-01T10:06:33.148Z,16.38
2022-11-01T10:07:33.138Z,16.31
2022-11-01T10:08:33.129Z,16.35
2022-11-01T10:09:33.116Z,16.38
2022-11-01T10:10:35.760Z,16.38
2022-11-01T10:11:33.108Z,16.41
2022-11-01T10:12:33.097Z,16.43
2022-11-01T10:13:33.069Z,16.43
2022-11-01T10:14:33.069Z,16.46
2022-11-01T10:15:33.048Z,16.43
2022-11-01T10:16:33.060Z,16.43
2022-11-01T10:17:33.030Z,16.42
2022-11-01T10:18:33.022Z,16.49
2022-11-01T10:19:33.000Z,16.51
2022-11-01T10:20:33.002Z,16.56
2022-11-01T10:21:32.992Z,16.56
2022-11-01T10:22:32.977Z,16.53
2022-11-01T10:23:32.971Z,16.51
2022-11-01T10:24:32.948Z,16.47
2022-11-01T10:25:32.948Z,16.43
2022-11-01T10:26:32.949Z,16.43
2022-11-01T10:27:36.270Z,16.46
2022-11-01T10:28:32.900Z,16.50
2022-11-01T10:29:32.888Z,16.50
2022-11-01T10:30:32.883Z,16.54
2022-11-01T10:31:32.890Z,16.57
2022-11-01T10:32:32.851Z,16.61
2022-11-01T10:33:32.841Z,16.60
2022-11-01T10:34:36.036Z,16.60
2022-11-01T10:35:32.820Z,16.64
2022-11-01T10:36:32.889Z,16.68
2022-11-01T10:37:32.812Z,16.66
2022-11-01T10:38:59.103Z,16.61
2022-11-01T10:39:54.725Z,16.60
2022-11-01T10:40:33.773Z,16.58
2022-11-01T10:41:32.753Z,16.60
2022-11-01T10:42:32.760Z,16.51
2022-11-01T10:43:32.738Z,16.53
2022-11-01T10:44:32.729Z,16.58
2022-11-01T10:45:32.705Z,16.65
2022-11-01T10:46:32.713Z,16.71
2022-11-01T10:47:32.685Z,16.74
2022-11-01T10:48:32.682Z,16.74
2022-11-01T10:49:53.016Z,16.68
2022-11-01T10:50:33.654Z,16.68
2022-11-01T10:51:32.643Z,16.68
2022-11-01T10:52:32.652Z,16.64
2022-11-01T10:53:32.624Z,16.65
2022-11-01T10:54:32.618Z,16.66
2022-11-01T10:55:32.606Z,16.72
2022-11-01T10:56:32.592Z,16.74
2022-11-01T10:57:32.572Z,16.66
2022-11-01T10:58:32.576Z,16.60
2022-11-01T10:59:32.577Z,16.61
2022-11-01T11:00:32.547Z,16.64
2022-11-01T11:01:32.703Z,16.64
2022-11-01T11:02:32.585Z,16.64
2022-11-01T11:03:32.546Z,16.66
2022-11-01T11:04:32.555Z,16.68
2022-11-01T11:05:32.507Z,16.68
2022-11-01T11:06:32.477Z,16.72
2022-11-01T11:07:32.458Z,16.68
2022-11-01T11:08:32.465Z,16.65
2022-11-01T11:09:32.438Z,16.65
2022-11-01T11:10:32.436Z,16.64
2022-11-01T11:11:32.424Z,16.61
2022-11-01T11:12:32.446Z,16.61
2022-11-01T11:13:32.392Z,16.66
2022-11-01T11:14:32.397Z,16.65
2022-11-01T11:15:35.496Z,16.64
2022-11-01T11:16:32.369Z,16.68
2022-11-01T11:17:32.359Z,16.72
2022-11-01T11:18:32.345Z,16.74
2022-11-01T11:19:32.325Z,16.69
2022-11-01T11:20:32.333Z,16.66
2022-11-01T11:21:32.304Z,16.65
2022-11-01T11:22:32.318Z,16.69
2022-11-01T11:23:32.289Z,16.71
2022-11-01T11:24:32.281Z,16.76
2022-11-01T11:25:32.249Z,16.83
2022-11-01T11:26:37.503Z,16.87
2022-11-01T11:27:33.237Z,16.89
2022-11-01T11:28:32.238Z,16.89
2022-11-01T11:29:32.221Z,16.89
2022-11-01T11:30:32.212Z,16.94
2022-11-01T11:31:32.190Z,17.01
2022-11-01T11:32:32.209Z,17.06
2022-11-01T11:33:32.157Z,17.11
2022-11-01T11:34:32.158Z,17.15
2022-11-01T11:35:32.157Z,17.16
2022-11-01T11:36:32.141Z,17.19
2022-11-01T11:37:32.121Z,17.15
2022-11-01T11:38:32.122Z,17.06
2022-11-01T11:39:32.133Z,17.04
2022-11-01T11:40:32.090Z,17.06
2022-11-01T11:41:32.081Z,17.11
2022-11-01T11:42:32.102Z,17.12
2022-11-01T11:43:32.050Z,17.14
2022-11-01T11:44:32.042Z,17.19
2022-11-01T11:45:32.034Z,17.26
2022-11-01T11:46:32.042Z,17.31
2022-11-01T11:47:32.033Z,17.38
2022-11-01T11:48:32.013Z,17.42
2022-11-01T11:49:31.982Z,17.45
2022-11-01T11:50:31.983Z,17.46
2022-11-01T11:51:31.962Z,17.49
2022-11-01T11:52:36.889Z,17.46
2022-11-01T11:53:32.962Z,17.45
2022-11-01T11:54:31.962Z,17.46
2022-11-01T11:55:31.911Z,17.54
2022-11-01T11:56:31.911Z,17.54
2022-11-01T11:57:31.913Z,17.56
2022-11-01T11:58:31.916Z,17.49
2022-11-01T11:59:31.873Z,17.44
2022-11-01T12:00:31.873Z,17.46
2022-11-01T12:01:31.892Z,17.48
2022-11-01T12:02:31.875Z,17.46
2022-11-01T12:03:31.835Z,17.46
2022-11-01T12:04:31.823Z,17.41
2022-11-01T12:05:31.802Z,17.39
2022-11-01T12:06:31.796Z,17.39
2022-11-01T12:07:31.777Z,17.38
2022-11-01T12:08:31.786Z,17.44
2022-11-01T12:09:31.766Z,17.49
2022-11-01T12:10:31.770Z,17.52
2022-11-01T12:11:31.734Z,17.54
2022-11-01T12:12:31.774Z,17.59
2022-11-01T12:13:31.889Z,17.64
2022-11-01T12:14:31.747Z,17.64
2022-11-01T12:15:34.399Z,17.65
2022-11-01T12:16:32.696Z,17.65
2022-11-01T12:17:31.670Z,17.70
2022-11-01T12:18:31.662Z,17.72
2022-11-01T12:19:31.661Z,17.71
2022-11-01T12:20:31.678Z,17.71
2022-11-01T12:21:31.638Z,17.74
2022-11-01T12:22:31.627Z,17.71
2022-11-01T12:23:31.606Z,17.68
2022-11-01T12:24:31.598Z,17.65
2022-11-01T12:25:31.579Z,17.70
2022-11-01T12:26:31.587Z,17.71
2022-11-01T12:27:31.547Z,17.76
2022-11-01T12:28:31.560Z,17.82
2022-11-01T12:29:31.539Z,17.85
2022-11-01T12:30:31.530Z,17.89
2022-11-01T12:31:31.841Z,17.90
2022-11-01T12:32:31.511Z,17.92
2022-11-01T12:33:31.492Z,17.85
2022-11-01T12:34:31.500Z,17.80
2022-11-01T12:35:31.500Z,17.78
2022-11-01T12:36:31.459Z,17.79
2022-11-01T12:37:31.447Z,17.68
2022-11-01T12:38:31.439Z,17.74
2022-11-01T12:39:31.423Z,17.82
2022-11-01T12:40:31.451Z,17.85
2022-11-01T12:41:31.398Z,17.86
2022-11-01T12:42:31.399Z,17.87
2022-11-01T12:43:31.389Z,17.87
2022-11-01T12:44:31.379Z,17.87
2022-11-01T12:45:31.360Z,17.94
2022-11-01T12:46:31.371Z,17.97
2022-11-01T12:47:31.331Z,17.98
2022-11-01T12:48:31.343Z,18.01
2022-11-01T12:49:31.303Z,18.03
2022-11-01T12:50:31.304Z,18.07
2022-11-01T12:51:31.283Z,18.18
2022-11-01T12:52:31.293Z,18.31
2022-11-01T12:53:31.262Z,18.45
2022-11-01T12:54:31.304Z,18.59